Time;durP1;ratioP1;P1;durP2;ratioP2;P2;SDS_P1;SDS_P2;PMS_P1;PMS_P2;Temp;Humidity;BMP_temperature;BMP_pressure;BME280_temperature;BME280_humidity;BME280_pressure;Samples;Min_cycle;Max_cycle;Signal;HPM_P1;HPM_P2
2023/01/03 00:04:00;;;;;;;12.88;7.82;;;10.80;73.50;;;;;;21334991;27;20046;-58
2023/01/03 00:14:02;;;;;;;11.07;7.47;;;10.70;73.70;;;;;;21335013;27;20146;-58
2023/01/03 00:24:06;;;;;;;10.10;7.43;;;10.50;73.80;;;;;;21334570;27;20053;-57
2023/01/03 00:34:09;;;;;;;8.27;6.55;;;10.30;74.00;;;;;;21333752;27;20395;-58
2023/01/03 00:44:11;;;;;;;10.45;6.38;;;10.20;74.10;;;;;;21332910;27;20049;-59
2023/01/03 00:54:14;;;;;;;8.85;7.15;;;10.10;74.10;;;;;;21333476;27;20046;-57
2023/01/03 01:04:22;;;;;;;11.23;7.28;;;10.00;74.10;;;;;;21332640;27;20487;-56
2023/01/03 01:14:26;;;;;;;9.07;7.10;;;9.90;74.40;;;;;;21332366;27;20611;-57
2023/01/03 01:24:28;;;;;;;8.83;6.90;;;9.90;73.80;;;;;;21334653;27;20049;-58
2023/01/03 01:34:31;;;;;;;8.75;6.35;;;9.80;73.90;;;;;;21347408;27;20099;-57
2023/01/03 01:44:47;;;;;;;8.95;7.10;;;9.80;73.50;;;;;;21345643;27;20047;-57
2023/01/03 01:54:52;;;;;;;9.18;7.20;;;9.70;73.40;;;;;;21345596;27;20070;-63
2023/01/03 02:04:55;;;;;;;9.87;7.50;;;9.50;73.70;;;;;;21344838;27;20058;-57
2023/01/03 02:15:13;;;;;;;10.32;7.50;;;9.40;73.90;;;;;;21343403;27;20046;-57
2023/01/03 02:25:16;;;;;;;11.73;8.15;;;9.30;73.60;;;;;;21343246;27;20078;-58
2023/01/03 02:35:31;;;;;;;9.57;7.38;;;9.20;73.60;;;;;;21341161;27;20047;-57
2023/01/03 02:46:02;;;;;;;9.75;7.63;;;9.20;73.50;;;;;;21341755;27;20039;-57
2023/01/03 02:56:08;;;;;;;12.75;7.40;;;9.10;73.50;;;;;;21340488;27;20054;-58
2023/01/03 03:06:31;;;;;;;10.63;7.82;;;9.00;73.90;;;;;;21339886;27;20057;-57
2023/01/03 03:16:54;;;;;;;10.93;7.60;;;8.90;74.00;;;;;;21338620;27;20130;-57
2023/01/03 03:26:59;;;;;;;10.93;7.60;;;8.90;73.70;;;;;;21338648;27;20045;-62
2023/01/03 03:37:15;;;;;;;10.98;8.05;;;8.80;74.10;;;;;;21338471;27;20046;-56
2023/01/03 03:47:38;;;;;;;7.80;5.97;;;8.70;73.90;;;;;;21336152;27;20043;-58
2023/01/03 03:57:48;;;;;;;10.40;7.78;;;8.70;73.40;;;;;;21335084;27;20050;-58
2023/01/03 04:07:50;;;;;;;12.15;8.40;;;8.60;73.80;;;;;;21315664;27;20054;-58
2023/01/03 04:17:53;;;;;;;10.15;7.35;;;8.50;73.60;;;;;;21334669;27;20051;-57
2023/01/03 04:27:55;;;;;;;10.85;8.40;;;8.50;73.40;;;;;;21334026;27;20042;-56
2023/01/03 04:37:57;;;;;;;11.23;8.50;;;8.40;73.80;;;;;;21333008;27;20050;-56
2023/01/03 04:48:12;;;;;;;11.97;8.27;;;8.30;73.80;;;;;;21333033;27;20039;-56
2023/01/03 04:58:15;;;;;;;10.27;7.90;;;8.30;73.90;;;;;;21334758;27;20389;-60
2023/01/03 05:08:18;;;;;;;11.93;8.45;;;8.10;74.10;;;;;;21348345;27;20042;-56
2023/01/03 05:18:20;;;;;;;11.27;8.43;;;8.20;73.70;;;;;;21348090;27;20051;-57
2023/01/03 05:28:23;;;;;;;12.98;9.27;;;8.00;74.20;;;;;;21347645;27;20043;-57
2023/01/03 05:38:25;;;;;;;10.55;8.00;;;8.00;74.20;;;;;;21346431;27;20050;-57
2023/01/03 05:48:28;;;;;;;13.15;8.65;;;7.80;74.40;;;;;;21345724;27;20467;-57
2023/01/03 05:58:30;;;;;;;11.25;8.80;;;7.80;74.30;;;;;;21344673;27;20054;-55
2023/01/03 06:08:32;;;;;;;12.18;8.82;;;7.80;74.50;;;;;;21343860;27;20505;-63
2023/01/03 06:18:36;;;;;;;12.93;9.25;;;7.70;74.90;;;;;;21347408;27;20536;-55
2023/01/03 06:28:38;;;;;;;12.15;8.35;;;7.70;75.10;;;;;;21342567;27;20096;-57
2023/01/03 06:38:40;;;;;;;13.20;8.88;;;7.50;74.90;;;;;;21342415;27;20443;-56
2023/01/03 06:59:03;;;;;;;13.98;9.85;;;7.50;74.50;;;;;;21340308;27;20051;-57
2023/01/03 07:09:05;;;;;;;12.45;8.95;;;7.40;74.90;;;;;;21338410;27;20054;-56
2023/01/03 07:19:10;;;;;;;12.23;8.90;;;7.30;74.50;;;;;;21338842;27;20500;-56
2023/01/03 07:29:13;;;;;;;13.27;8.77;;;7.20;74.80;;;;;;21336578;27;20156;-57
2023/01/03 07:39:15;;;;;;;11.95;8.77;;;7.20;74.90;;;;;;21336252;27;20057;-56
2023/01/03 07:49:18;;;;;;;12.45;9.23;;;7.20;74.30;;;;;;21336042;27;20474;-57
2023/01/03 07:59:20;;;;;;;13.35;9.00;;;7.10;74.70;;;;;;21335580;27;20089;-58
2023/01/03 08:19:43;;;;;;;14.50;9.10;;;7.10;74.10;;;;;;21333644;27;20051;-55
2023/01/03 08:29:46;;;;;;;16.38;9.52;;;7.00;74.40;;;;;;21314944;27;20054;-56
2023/01/03 08:39:56;;;;;;;16.48;10.45;;;7.10;74.30;;;;;;21349832;27;20055;-60
2023/01/03 08:49:59;;;;;;;16.55;10.18;;;7.20;74.20;;;;;;21352007;27;20103;-56
2023/01/03 09:00:00;;;;;;;16.45;9.18;;;7.20;73.90;;;;;;21350374;27;20546;-57
